createdAt,value
2019-04-28T00:04:49.112Z,33.57
2019-04-28T00:09:51.177Z,37.57
2019-04-28T00:14:53.131Z,36.40
2019-04-28T00:19:56.739Z,34.40
2019-04-28T00:25:09.180Z,32.63
2019-04-28T00:30:12.889Z,33.90
2019-04-28T00:35:16.654Z,32.40
2019-04-28T00:40:18.779Z,30.13
2019-04-28T00:45:21.485Z,28.00
2019-04-28T00:50:23.847Z,29.73
2019-04-28T00:55:25.563Z,26.90
2019-04-28T01:00:29.111Z,33.60
2019-04-28T01:05:31.239Z,29.80
2019-04-28T01:10:33.267Z,37.07
2019-04-28T01:15:39.859Z,33.70
2019-04-28T01:20:42.767Z,34.83
2019-04-28T01:25:45.071Z,33.27
2019-04-28T01:30:51.556Z,38.00
2019-04-28T01:35:53.911Z,37.53
2019-04-28T01:40:57.422Z,38.83
2019-04-28T01:46:00.164Z,41.33
2019-04-28T01:51:03.353Z,35.30
2019-04-28T01:56:05.400Z,41.20
2019-04-28T02:01:07.225Z,40.77
2019-04-28T02:06:10.040Z,41.33
2019-04-28T02:11:12.021Z,39.43
2019-04-28T02:16:13.970Z,36.27
2019-04-28T02:21:17.491Z,36.30
2019-04-28T02:26:19.619Z,40.20
2019-04-28T02:31:24.408Z,42.03
2019-04-28T02:36:24.797Z,35.77
2019-04-28T02:41:26.408Z,38.20
2019-04-28T02:46:30.674Z,36.37
2019-04-28T02:51:36.975Z,35.77
2019-04-28T02:56:40.891Z,39.53
2019-04-28T03:01:42.148Z,37.93
2019-04-28T03:06:44.263Z,43.13
2019-04-28T03:11:46.182Z,35.53
2019-04-28T03:16:50.806Z,45.00
2019-04-28T03:21:51.783Z,41.23
2019-04-28T03:26:56.395Z,42.37
2019-04-28T03:32:28.066Z,47.37
2019-04-28T03:37:11.283Z,44.93
2019-04-28T03:42:13.269Z,38.20
2019-04-28T03:47:23.588Z,38.83
2019-04-28T03:52:25.255Z,35.87
2019-04-28T03:57:26.876Z,39.60
2019-04-28T04:02:31.041Z,40.53
2019-04-28T04:07:32.050Z,46.40
2019-04-28T04:12:44.508Z,43.00
2019-04-28T04:18:04.989Z,45.97
2019-04-28T04:23:06.754Z,44.63
2019-04-28T04:28:10.512Z,42.80
2019-04-28T04:33:11.864Z,40.77
2019-04-28T04:38:13.480Z,43.30
2019-04-28T04:43:15.119Z,41.63
2019-04-28T04:48:26.626Z,43.17
2019-04-28T04:53:30.802Z,43.93
2019-04-28T04:58:34.539Z,47.37
2019-04-28T05:03:39.692Z,44.07
2019-04-28T05:08:41.491Z,41.80
2019-04-28T05:13:43.103Z,45.73
2019-04-28T05:18:44.822Z,47.43
2019-04-28T05:23:52.213Z,43.90
2019-04-28T05:28:53.813Z,51.47
2019-04-28T05:33:55.422Z,44.83
2019-04-28T05:38:57.068Z,44.53
2019-04-28T05:43:59.640Z,43.23
2019-04-28T05:49:15.567Z,37.67
2019-04-28T05:54:31.220Z,34.23
2019-04-28T05:59:50.565Z,35.30
2019-04-28T06:04:52.504Z,34.93
2019-04-28T06:09:55.351Z,34.13
2019-04-28T06:14:56.957Z,44.20
2019-04-28T06:20:00.175Z,36.10
2019-04-28T06:25:03.602Z,35.47
2019-04-28T06:30:06.906Z,40.60
2019-04-28T06:35:08.843Z,40.53
2019-04-28T06:40:12.234Z,35.97
2019-04-28T06:45:14.152Z,33.43
2019-04-28T06:50:22.895Z,41.43
2019-04-28T06:55:24.743Z,40.70
2019-04-28T07:00:26.658Z,38.97
2019-04-28T07:05:28.264Z,39.97
2019-04-28T07:10:30.078Z,38.23
2019-04-28T07:15:31.752Z,42.17
2019-04-28T07:20:45.615Z,42.53
2019-04-28T07:25:47.332Z,38.07
2019-04-28T07:30:49.460Z,37.37
2019-04-28T07:35:51.175Z,39.70
2019-04-28T07:40:52.874Z,41.00
2019-04-28T07:45:54.545Z,34.47
2019-04-28T07:50:56.222Z,44.13
2019-04-28T07:55:58.038Z,37.63
2019-04-28T08:01:00.015Z,36.80
2019-04-28T08:06:01.719Z,40.80
2019-04-28T08:11:03.826Z,40.90
2019-04-28T08:16:06.824Z,47.70
2019-04-28T08:21:08.414Z,43.63
2019-04-28T08:26:10.109Z,46.43
2019-04-28T08:31:13.675Z,46.83
2019-04-28T08:36:15.282Z,53.73
2019-04-28T08:41:17.000Z,61.20
2019-04-28T08:46:18.654Z,55.60
2019-04-28T08:51:20.437Z,54.43
2019-04-28T08:56:22.151Z,53.33
2019-04-28T09:01:24.126Z,54.33
2019-04-28T09:06:25.842Z,52.33
2019-04-28T09:11:27.452Z,42.80
2019-04-28T09:16:29.104Z,42.60
2019-04-28T09:21:30.851Z,43.70
2019-04-28T09:26:32.562Z,39.17
2019-04-28T09:31:34.326Z,36.73
2019-04-28T09:36:35.942Z,37.20
2019-04-28T09:41:39.580Z,39.87
2019-04-28T09:46:43.087Z,40.07
2019-04-28T09:51:51.693Z,37.40
2019-04-28T09:56:56.875Z,32.27
2019-04-28T10:01:57.208Z,33.77
2019-04-28T10:06:58.923Z,29.23
2019-04-28T10:12:00.639Z,25.73
2019-04-28T10:17:02.943Z,25.33
2019-04-28T10:22:05.245Z,23.37
2019-04-28T10:27:07.858Z,27.53
2019-04-28T10:32:09.488Z,23.67
2019-04-28T10:37:11.200Z,26.50
2019-04-28T10:42:12.914Z,23.47
2019-04-28T10:47:16.127Z,22.57
2019-04-28T10:52:18.042Z,25.47
2019-04-28T10:57:19.649Z,24.90
2019-04-28T11:02:21.423Z,24.03
2019-04-28T11:07:23.446Z,29.63
2019-04-28T11:12:29.924Z,28.07
2019-04-28T11:17:31.532Z,25.30
2019-04-28T11:22:33.289Z,25.60
2019-04-28T11:27:35.306Z,23.97
2019-04-28T11:32:38.925Z,21.90
2019-04-28T11:37:40.736Z,24.23
2019-04-28T11:42:42.459Z,26.20
2019-04-28T11:47:44.349Z,23.20
2019-04-28T11:52:56.174Z,21.80
2019-04-28T11:58:09.591Z,24.20
2019-04-28T12:03:24.166Z,25.07
2019-04-28T12:08:26.302Z,24.83
2019-04-28T12:15:40.541Z,23.80
2019-04-28T12:20:42.255Z,25.30
2019-04-28T12:25:43.991Z,24.20
2019-04-28T12:30:46.142Z,18.90
2019-04-28T12:35:48.357Z,19.93
2019-04-28T12:40:50.522Z,19.47
2019-04-28T12:45:52.209Z,18.47
2019-04-28T12:50:54.106Z,23.83
2019-04-28T12:55:56.135Z,17.20
2019-04-28T13:01:18.179Z,21.83
2019-04-28T13:06:21.877Z,21.73
2019-04-28T13:11:23.374Z,24.20
2019-04-28T13:16:24.978Z,22.90
2019-04-28T13:21:26.673Z,25.50
2019-04-28T13:26:28.298Z,22.03
2019-04-28T13:31:29.833Z,21.37
2019-04-28T13:36:31.316Z,22.30
2019-04-28T13:41:33.060Z,20.60
2019-04-28T13:46:34.768Z,26.73
2019-04-28T13:51:36.397Z,30.23
2019-04-28T13:56:38.231Z,29.63
2019-04-28T14:01:42.890Z,28.60
2019-04-28T14:06:46.429Z,27.80
2019-04-28T14:11:48.093Z,30.00
2019-04-28T14:16:49.676Z,27.10
2019-04-28T14:21:51.232Z,27.40
2019-04-28T14:26:53.036Z,30.07
2019-04-28T14:31:54.683Z,27.47
2019-04-28T14:36:56.234Z,30.57
2019-04-28T14:41:57.835Z,28.70
2019-04-28T14:46:59.471Z,26.43
2019-04-28T14:52:01.252Z,24.10
2019-04-28T14:57:03.252Z,21.90
2019-04-28T15:02:22.433Z,24.10
2019-04-28T15:07:38.108Z,24.07
2019-04-28T15:12:40.122Z,27.70
2019-04-28T15:17:41.626Z,26.70
2019-04-28T15:22:43.360Z,27.43
2019-04-28T15:27:45.166Z,24.53
2019-04-28T15:32:46.768Z,25.53
2019-04-28T15:37:48.556Z,25.20
2019-04-28T15:42:50.175Z,27.53
2019-04-28T15:47:52.286Z,28.40
2019-04-28T15:52:54.295Z,32.70
2019-04-28T15:57:55.974Z,35.10
2019-04-28T16:02:57.479Z,35.00
2019-04-28T16:07:59.009Z,33.87
2019-04-28T16:13:00.511Z,29.47
2019-04-28T16:18:02.035Z,28.83
2019-04-28T16:23:04.761Z,27.73
2019-04-28T16:28:06.359Z,25.20
2019-04-28T16:33:07.917Z,45.33
2019-04-28T16:38:09.602Z,27.30
2019-04-28T16:43:18.470Z,29.37
2019-04-28T16:48:19.974Z,32.90
2019-04-28T16:53:21.589Z,40.27
2019-04-28T16:58:41.832Z,37.47
2019-04-28T17:03:43.701Z,38.00
2019-04-28T17:08:45.210Z,33.00
2019-04-28T17:13:47.201Z,37.43
2019-04-28T17:18:48.848Z,36.90
2019-04-28T17:23:51.553Z,34.87
2019-04-28T17:28:53.610Z,34.03
2019-04-28T17:33:55.368Z,35.07
2019-04-28T17:38:58.067Z,38.73
2019-04-28T17:43:59.662Z,43.47
2019-04-28T17:49:01.832Z,40.33
2019-04-28T17:54:04.745Z,41.07
2019-04-28T17:59:06.321Z,36.50
2019-04-28T18:04:26.684Z,34.50
2019-04-28T18:09:29.167Z,40.10
2019-04-28T18:14:31.487Z,43.53
2019-04-28T18:19:33.599Z,40.77
2019-04-28T18:24:35.596Z,47.57
2019-04-28T18:29:37.376Z,42.40
2019-04-28T18:34:40.804Z,40.27
2019-04-28T18:40:02.445Z,51.63
2019-04-28T18:45:06.019Z,74.13
2019-04-28T18:50:08.213Z,39.37
2019-04-28T18:55:10.807Z,42.00
2019-04-28T19:00:13.598Z,39.93
2019-04-28T19:05:15.686Z,44.70
2019-04-28T19:10:19.311Z,40.10
2019-04-28T19:15:22.910Z,38.50
2019-04-28T19:20:24.596Z,39.63
2019-04-28T19:25:26.390Z,39.77
2019-04-28T19:30:27.864Z,41.87
2019-04-28T19:35:29.439Z,40.30
2019-04-28T19:40:31.292Z,36.30
2019-04-28T19:45:34.878Z,36.90
2019-04-28T19:50:36.443Z,35.97
2019-04-28T19:55:39.924Z,38.07
2019-04-28T20:01:00.077Z,35.47
2019-04-28T20:06:01.685Z,28.17
2019-04-28T20:11:03.465Z,29.43
2019-04-28T20:16:05.039Z,23.73
2019-04-28T20:21:06.712Z,25.33
2019-04-28T20:26:08.603Z,30.53
2019-04-28T20:31:10.294Z,27.27
2019-04-28T20:36:22.489Z,29.27
2019-04-28T20:41:26.130Z,31.77
2019-04-28T20:46:28.707Z,35.00
2019-04-28T20:51:30.287Z,30.90
2019-04-28T20:56:31.871Z,29.47
2019-04-28T21:01:33.506Z,28.03
2019-04-28T21:06:35.137Z,31.73
2019-04-28T21:11:36.677Z,28.60
2019-04-28T21:16:38.199Z,29.33
2019-04-28T21:21:39.700Z,31.13
2019-04-28T21:26:41.451Z,30.73
2019-04-28T21:31:42.932Z,29.57
2019-04-28T21:36:44.512Z,28.13
2019-04-28T21:41:46.053Z,24.43
2019-04-28T21:46:49.526Z,27.90
2019-04-28T21:51:51.002Z,22.53
2019-04-28T21:56:52.495Z,28.07
2019-04-28T22:01:54.375Z,26.63
2019-04-28T22:06:56.460Z,29.90
2019-04-28T22:11:58.028Z,22.30
2019-04-28T22:16:59.764Z,25.93
2019-04-28T22:22:01.239Z,24.70
2019-04-28T22:27:03.233Z,26.10
2019-04-28T22:32:04.699Z,23.27
2019-04-28T22:37:06.385Z,28.60
2019-04-28T22:42:08.174Z,27.23
2019-04-28T22:47:09.834Z,27.20
2019-04-28T22:52:11.346Z,26.97
2019-04-28T22:57:17.466Z,21.73
2019-04-28T23:02:20.949Z,21.87
2019-04-28T23:07:22.933Z,22.80
2019-04-28T23:12:24.570Z,23.13
2019-04-28T23:17:26.299Z,21.10
2019-04-28T23:22:46.225Z,18.90
2019-04-28T23:27:39.122Z,19.73
2019-04-28T23:32:40.596Z,17.83
2019-04-28T23:37:42.421Z,15.53
2019-04-28T23:42:45.807Z,13.57
2019-04-28T23:47:47.330Z,15.70
2019-04-28T23:52:53.690Z,17.30
2019-04-28T23:57:55.166Z,12.73
